sensor_id;sensor_type;location;lat;lon;timestamp;P1;durP1;ratioP1;P2;durP2;ratioP2
9224;SDS011;4647;48.072;11.616;2024-03-17T00:01:05;5.27;;;3.70;;
9224;SDS011;4647;48.072;11.616;2024-03-17T00:03:33;3.80;;;3.37;;
9224;SDS011;4647;48.072;11.616;2024-03-17T00:06:02;4.10;;;3.13;;
9224;SDS011;4647;48.072;11.616;2024-03-17T00:08:30;3.77;;;3.40;;
9224;SDS011;4647;48.072;11.616;2024-03-17T00:10:56;3.70;;;3.40;;
9224;SDS011;4647;48.072;11.616;2024-03-17T00:13:24;3.83;;;3.53;;
9224;SDS011;4647;48.072;11.616;2024-03-17T00:15:51;3.83;;;3.40;;
9224;SDS011;4647;48.072;11.616;2024-03-17T00:18:19;3.87;;;3.47;;
9224;SDS011;4647;48.072;11.616;2024-03-17T00:20:45;3.47;;;3.17;;
9224;SDS011;4647;48.072;11.616;2024-03-17T00:23:16;4.90;;;3.20;;
9224;SDS011;4647;48.072;11.616;2024-03-17T00:25:42;5.07;;;3.30;;
9224;SDS011;4647;48.072;11.616;2024-03-17T00:28:11;6.90;;;3.47;;
9224;SDS011;4647;48.072;11.616;2024-03-17T00:30:37;3.70;;;3.27;;
9224;SDS011;4647;48.072;11.616;2024-03-17T00:33:06;3.80;;;3.50;;
9224;SDS011;4647;48.072;11.616;2024-03-17T00:35:32;3.50;;;3.07;;
9224;SDS011;4647;48.072;11.616;2024-03-17T00:38:01;4.57;;;3.60;;
9224;SDS011;4647;48.072;11.616;2024-03-17T00:40:34;3.63;;;3.33;;
9224;SDS011;4647;48.072;11.616;2024-03-17T00:43:02;3.47;;;3.17;;
9224;SDS011;4647;48.072;11.616;2024-03-17T00:45:28;3.57;;;2.90;;
9224;SDS011;4647;48.072;11.616;2024-03-17T00:47:57;3.37;;;2.90;;
9224;SDS011;4647;48.072;11.616;2024-03-17T00:50:23;4.43;;;3.10;;
9224;SDS011;4647;48.072;11.616;2024-03-17T00:52:51;4.37;;;2.83;;
9224;SDS011;4647;48.072;11.616;2024-03-17T00:55:17;3.57;;;2.70;;
9224;SDS011;4647;48.072;11.616;2024-03-17T00:57:48;3.10;;;2.80;;
9224;SDS011;4647;48.072;11.616;2024-03-17T01:00:17;3.40;;;3.10;;
9224;SDS011;4647;48.072;11.616;2024-03-17T01:02:43;2.93;;;2.73;;
9224;SDS011;4647;48.072;11.616;2024-03-17T01:05:12;3.30;;;3.00;;
9224;SDS011;4647;48.072;11.616;2024-03-17T01:07:37;3.20;;;2.80;;
9224;SDS011;4647;48.072;11.616;2024-03-17T01:10:07;4.47;;;3.30;;
9224;SDS011;4647;48.072;11.616;2024-03-17T01:12:34;3.77;;;2.90;;
9224;SDS011;4647;48.072;11.616;2024-03-17T01:15:06;4.43;;;2.80;;
9224;SDS011;4647;48.072;11.616;2024-03-17T01:17:32;3.97;;;2.90;;
9224;SDS011;4647;48.072;11.616;2024-03-17T01:20:01;4.53;;;3.17;;
9224;SDS011;4647;48.072;11.616;2024-03-17T01:22:31;4.60;;;2.80;;
9224;SDS011;4647;48.072;11.616;2024-03-17T01:24:57;3.53;;;2.63;;
9224;SDS011;4647;48.072;11.616;2024-03-17T01:27:26;4.03;;;3.30;;
9224;SDS011;4647;48.072;11.616;2024-03-17T01:29:51;3.70;;;3.10;;
9224;SDS011;4647;48.072;11.616;2024-03-17T01:32:22;3.73;;;3.20;;
9224;SDS011;4647;48.072;11.616;2024-03-17T01:34:48;4.73;;;3.33;;
9224;SDS011;4647;48.072;11.616;2024-03-17T01:37:17;5.07;;;3.77;;
9224;SDS011;4647;48.072;11.616;2024-03-17T01:39:42;3.70;;;3.23;;
9224;SDS011;4647;48.072;11.616;2024-03-17T01:42:11;3.37;;;3.00;;
9224;SDS011;4647;48.072;11.616;2024-03-17T01:44:37;3.63;;;3.27;;
9224;SDS011;4647;48.072;11.616;2024-03-17T01:47:05;3.73;;;3.10;;
9224;SDS011;4647;48.072;11.616;2024-03-17T01:49:36;5.67;;;3.87;;
9224;SDS011;4647;48.072;11.616;2024-03-17T01:52:05;4.83;;;3.83;;
9224;SDS011;4647;48.072;11.616;2024-03-17T01:54:31;4.57;;;3.87;;
9224;SDS011;4647;48.072;11.616;2024-03-17T01:57:00;4.07;;;3.63;;
9224;SDS011;4647;48.072;11.616;2024-03-17T01:59:26;4.90;;;3.80;;
9224;SDS011;4647;48.072;11.616;2024-03-17T02:01:55;3.77;;;3.47;;
9224;SDS011;4647;48.072;11.616;2024-03-17T02:04:24;4.93;;;4.30;;
9224;SDS011;4647;48.072;11.616;2024-03-17T02:06:52;4.77;;;4.37;;
9224;SDS011;4647;48.072;11.616;2024-03-17T02:09:21;4.50;;;4.10;;
9224;SDS011;4647;48.072;11.616;2024-03-17T02:11:47;4.60;;;3.83;;
9224;SDS011;4647;48.072;11.616;2024-03-17T02:14:16;4.83;;;3.93;;
9224;SDS011;4647;48.072;11.616;2024-03-17T02:16:42;4.13;;;3.73;;
9224;SDS011;4647;48.072;11.616;2024-03-17T02:19:11;5.33;;;4.20;;
9224;SDS011;4647;48.072;11.616;2024-03-17T02:21:37;3.87;;;3.43;;
9224;SDS011;4647;48.072;11.616;2024-03-17T02:24:08;4.60;;;3.87;;
9224;SDS011;4647;48.072;11.616;2024-03-17T02:26:33;4.53;;;3.97;;
9224;SDS011;4647;48.072;11.616;2024-03-17T02:29:03;4.80;;;3.97;;
9224;SDS011;4647;48.072;11.616;2024-03-17T02:31:32;4.00;;;3.70;;
9224;SDS011;4647;48.072;11.616;2024-03-17T02:33:58;5.57;;;3.93;;
9224;SDS011;4647;48.072;11.616;2024-03-17T02:36:26;4.73;;;4.33;;
9224;SDS011;4647;48.072;11.616;2024-03-17T02:38:52;4.73;;;3.97;;
9224;SDS011;4647;48.072;11.616;2024-03-17T02:41:35;4.23;;;3.80;;
9224;SDS011;4647;48.072;11.616;2024-03-17T02:44:06;4.20;;;3.90;;
9224;SDS011;4647;48.072;11.616;2024-03-17T02:46:32;4.77;;;4.27;;
9224;SDS011;4647;48.072;11.616;2024-03-17T02:49:00;4.40;;;3.97;;
9224;SDS011;4647;48.072;11.616;2024-03-17T02:51:29;4.80;;;4.30;;
9224;SDS011;4647;48.072;11.616;2024-03-17T02:53:57;5.30;;;4.30;;
9224;SDS011;4647;48.072;11.616;2024-03-17T02:56:26;6.80;;;4.50;;
9224;SDS011;4647;48.072;11.616;2024-03-17T02:58:57;5.83;;;4.40;;
9224;SDS011;4647;48.072;11.616;2024-03-17T03:01:26;4.37;;;3.97;;
9224;SDS011;4647;48.072;11.616;2024-03-17T03:03:54;6.00;;;4.27;;
9224;SDS011;4647;48.072;11.616;2024-03-17T03:06:23;4.10;;;3.63;;
9224;SDS011;4647;48.072;11.616;2024-03-17T03:08:51;4.57;;;3.93;;
9224;SDS011;4647;48.072;11.616;2024-03-17T03:11:19;4.37;;;3.97;;
9224;SDS011;4647;48.072;11.616;2024-03-17T03:13:48;4.40;;;4.00;;
9224;SDS011;4647;48.072;11.616;2024-03-17T03:16:19;4.27;;;3.87;;
9224;SDS011;4647;48.072;11.616;2024-03-17T03:18:50;4.97;;;3.93;;
9224;SDS011;4647;48.072;11.616;2024-03-17T03:21:19;4.37;;;3.97;;
9224;SDS011;4647;48.072;11.616;2024-03-17T03:23:47;4.13;;;3.73;;
9224;SDS011;4647;48.072;11.616;2024-03-17T03:26:16;4.67;;;4.20;;
9224;SDS011;4647;48.072;11.616;2024-03-17T03:28:45;5.70;;;4.33;;
9224;SDS011;4647;48.072;11.616;2024-03-17T03:31:14;4.47;;;4.07;;
9224;SDS011;4647;48.072;11.616;2024-03-17T03:33:45;4.50;;;4.10;;
9224;SDS011;4647;48.072;11.616;2024-03-17T03:36:14;6.57;;;4.60;;
9224;SDS011;4647;48.072;11.616;2024-03-17T03:38:44;5.17;;;4.60;;
9224;SDS011;4647;48.072;11.616;2024-03-17T03:41:13;4.90;;;4.50;;
9224;SDS011;4647;48.072;11.616;2024-03-17T03:43:42;4.27;;;3.87;;
9224;SDS011;4647;48.072;11.616;2024-03-17T03:46:12;4.50;;;4.10;;
9224;SDS011;4647;48.072;11.616;2024-03-17T03:48:40;4.63;;;4.20;;
9224;SDS011;4647;48.072;11.616;2024-03-17T03:51:11;4.50;;;4.10;;
9224;SDS011;4647;48.072;11.616;2024-03-17T03:53:40;4.87;;;4.37;;
9224;SDS011;4647;48.072;11.616;2024-03-17T03:56:08;4.87;;;4.47;;
9224;SDS011;4647;48.072;11.616;2024-03-17T03:58:37;4.40;;;4.00;;
9224;SDS011;4647;48.072;11.616;2024-03-17T04:01:08;4.37;;;3.87;;
9224;SDS011;4647;48.072;11.616;2024-03-17T04:03:37;4.77;;;4.00;;
9224;SDS011;4647;48.072;11.616;2024-03-17T04:06:06;4.93;;;4.53;;
9224;SDS011;4647;48.072;11.616;2024-03-17T04:08:38;5.27;;;4.20;;
9224;SDS011;4647;48.072;11.616;2024-03-17T04:11:07;4.63;;;4.23;;
9224;SDS011;4647;48.072;11.616;2024-03-17T04:13:36;4.67;;;4.03;;
9224;SDS011;4647;48.072;11.616;2024-03-17T04:16:06;4.83;;;4.43;;
9224;SDS011;4647;48.072;11.616;2024-03-17T04:18:35;4.43;;;4.03;;
9224;SDS011;4647;48.072;11.616;2024-03-17T04:21:05;5.53;;;4.60;;
9224;SDS011;4647;48.072;11.616;2024-03-17T04:23:35;5.37;;;4.50;;
9224;SDS011;4647;48.072;11.616;2024-03-17T04:26:06;5.63;;;4.90;;
9224;SDS011;4647;48.072;11.616;2024-03-17T04:28:35;5.47;;;5.07;;
9224;SDS011;4647;48.072;11.616;2024-03-17T04:31:04;5.43;;;4.93;;
9224;SDS011;4647;48.072;11.616;2024-03-17T04:33:33;5.17;;;4.70;;
9224;SDS011;4647;48.072;11.616;2024-03-17T04:36:02;6.30;;;4.80;;
9224;SDS011;4647;48.072;11.616;2024-03-17T04:38:31;5.13;;;4.63;;
9224;SDS011;4647;48.072;11.616;2024-03-17T04:40:59;4.90;;;4.50;;
9224;SDS011;4647;48.072;11.616;2024-03-17T04:43:37;7.07;;;4.97;;
9224;SDS011;4647;48.072;11.616;2024-03-17T04:46:06;5.60;;;5.00;;
9224;SDS011;4647;48.072;11.616;2024-03-17T04:48:37;4.70;;;4.30;;
9224;SDS011;4647;48.072;11.616;2024-03-17T04:51:05;4.87;;;4.47;;
9224;SDS011;4647;48.072;11.616;2024-03-17T04:53:34;5.00;;;4.50;;
9224;SDS011;4647;48.072;11.616;2024-03-17T04:56:02;4.63;;;4.23;;
9224;SDS011;4647;48.072;11.616;2024-03-17T04:58:32;5.07;;;4.60;;
9224;SDS011;4647;48.072;11.616;2024-03-17T05:01:07;4.77;;;4.37;;
9224;SDS011;4647;48.072;11.616;2024-03-17T05:03:38;5.40;;;4.90;;
9224;SDS011;4647;48.072;11.616;2024-03-17T05:06:06;4.67;;;4.27;;
9224;SDS011;4647;48.072;11.616;2024-03-17T05:08:35;4.90;;;4.50;;
9224;SDS011;4647;48.072;11.616;2024-03-17T05:11:04;5.07;;;4.67;;
9224;SDS011;4647;48.072;11.616;2024-03-17T05:13:33;4.93;;;4.43;;
9224;SDS011;4647;48.072;11.616;2024-03-17T05:16:04;5.37;;;4.80;;
9224;SDS011;4647;48.072;11.616;2024-03-17T05:18:35;4.87;;;4.47;;
9224;SDS011;4647;48.072;11.616;2024-03-17T05:21:05;5.23;;;4.73;;
9224;SDS011;4647;48.072;11.616;2024-03-17T05:23:35;4.90;;;4.40;;
9224;SDS011;4647;48.072;11.616;2024-03-17T05:26:05;5.43;;;4.33;;
9224;SDS011;4647;48.072;11.616;2024-03-17T05:28:33;4.70;;;4.30;;
9224;SDS011;4647;48.072;11.616;2024-03-17T05:31:01;4.57;;;4.17;;
9224;SDS011;4647;48.072;11.616;2024-03-17T05:33:33;4.70;;;4.30;;
9224;SDS011;4647;48.072;11.616;2024-03-17T05:36:01;4.40;;;4.10;;
9224;SDS011;4647;48.072;11.616;2024-03-17T05:38:32;4.60;;;4.23;;
9224;SDS011;4647;48.072;11.616;2024-03-17T05:41:01;4.73;;;4.33;;
9224;SDS011;4647;48.072;11.616;2024-03-17T05:43:30;5.10;;;4.70;;
9224;SDS011;4647;48.072;11.616;2024-03-17T05:46:01;6.53;;;5.90;;
9224;SDS011;4647;48.072;11.616;2024-03-17T05:48:34;6.53;;;5.83;;
9224;SDS011;4647;48.072;11.616;2024-03-17T05:51:04;6.57;;;5.97;;
9224;SDS011;4647;48.072;11.616;2024-03-17T05:53:33;6.30;;;5.70;;
9224;SDS011;4647;48.072;11.616;2024-03-17T05:56:02;5.40;;;4.90;;
9224;SDS011;4647;48.072;11.616;2024-03-17T05:58:32;7.13;;;6.27;;
9224;SDS011;4647;48.072;11.616;2024-03-17T06:01:02;8.53;;;7.70;;
9224;SDS011;4647;48.072;11.616;2024-03-17T06:03:34;7.83;;;6.60;;
9224;SDS011;4647;48.072;11.616;2024-03-17T06:06:03;6.50;;;5.90;;
9224;SDS011;4647;48.072;11.616;2024-03-17T06:08:34;6.63;;;5.93;;
9224;SDS011;4647;48.072;11.616;2024-03-17T06:11:03;6.37;;;5.57;;
9224;SDS011;4647;48.072;11.616;2024-03-17T06:13:33;8.03;;;6.10;;
9224;SDS011;4647;48.072;11.616;2024-03-17T06:16:02;6.10;;;5.50;;
9224;SDS011;4647;48.072;11.616;2024-03-17T06:18:30;5.33;;;4.83;;
9224;SDS011;4647;48.072;11.616;2024-03-17T06:21:04;5.37;;;4.87;;
9224;SDS011;4647;48.072;11.616;2024-03-17T06:23:34;5.30;;;4.90;;
9224;SDS011;4647;48.072;11.616;2024-03-17T06:26:03;5.10;;;4.60;;
9224;SDS011;4647;48.072;11.616;2024-03-17T06:28:31;4.80;;;4.40;;
9224;SDS011;4647;48.072;11.616;2024-03-17T06:31:00;5.37;;;4.67;;
9224;SDS011;4647;48.072;11.616;2024-03-17T06:33:32;5.17;;;4.67;;
9224;SDS011;4647;48.072;11.616;2024-03-17T06:36:04;6.70;;;5.23;;
9224;SDS011;4647;48.072;11.616;2024-03-17T06:38:34;6.33;;;4.77;;
9224;SDS011;4647;48.072;11.616;2024-03-17T06:41:02;6.00;;;5.40;;
9224;SDS011;4647;48.072;11.616;2024-03-17T06:43:31;5.47;;;4.97;;
9224;SDS011;4647;48.072;11.616;2024-03-17T06:46:00;6.60;;;6.00;;
9224;SDS011;4647;48.072;11.616;2024-03-17T06:48:29;5.40;;;4.90;;
9224;SDS011;4647;48.072;11.616;2024-03-17T06:50:58;5.20;;;4.80;;
9224;SDS011;4647;48.072;11.616;2024-03-17T06:53:29;5.90;;;5.40;;
9224;SDS011;4647;48.072;11.616;2024-03-17T06:55:59;5.60;;;5.10;;
9224;SDS011;4647;48.072;11.616;2024-03-17T06:58:28;6.33;;;4.90;;
9224;SDS011;4647;48.072;11.616;2024-03-17T07:00:56;6.57;;;5.20;;
9224;SDS011;4647;48.072;11.616;2024-03-17T07:03:26;5.63;;;5.13;;
9224;SDS011;4647;48.072;11.616;2024-03-17T07:05:56;5.97;;;5.20;;
9224;SDS011;4647;48.072;11.616;2024-03-17T07:08:30;4.90;;;4.50;;
9224;SDS011;4647;48.072;11.616;2024-03-17T07:10:59;6.40;;;5.23;;
9224;SDS011;4647;48.072;11.616;2024-03-17T07:13:29;5.33;;;4.93;;
9224;SDS011;4647;48.072;11.616;2024-03-17T07:15:58;4.70;;;4.30;;
9224;SDS011;4647;48.072;11.616;2024-03-17T07:18:27;5.33;;;4.83;;
9224;SDS011;4647;48.072;11.616;2024-03-17T07:20:56;5.13;;;4.70;;
9224;SDS011;4647;48.072;11.616;2024-03-17T07:23:25;5.23;;;4.37;;
9224;SDS011;4647;48.072;11.616;2024-03-17T07:25:57;5.00;;;4.50;;
9224;SDS011;4647;48.072;11.616;2024-03-17T07:28:27;4.83;;;4.33;;
9224;SDS011;4647;48.072;11.616;2024-03-17T07:30:56;4.37;;;3.90;;
9224;SDS011;4647;48.072;11.616;2024-03-17T07:33:26;5.20;;;3.90;;
9224;SDS011;4647;48.072;11.616;2024-03-17T07:35:55;4.20;;;3.80;;
9224;SDS011;4647;48.072;11.616;2024-03-17T07:38:26;3.67;;;3.27;;
9224;SDS011;4647;48.072;11.616;2024-03-17T07:40:59;4.20;;;3.80;;
9224;SDS011;4647;48.072;11.616;2024-03-17T07:43:28;4.87;;;3.77;;
9224;SDS011;4647;48.072;11.616;2024-03-17T07:45:59;3.93;;;3.53;;
9224;SDS011;4647;48.072;11.616;2024-03-17T07:48:28;3.90;;;3.50;;
9224;SDS011;4647;48.072;11.616;2024-03-17T07:50:58;4.53;;;3.87;;
9224;SDS011;4647;48.072;11.616;2024-03-17T07:53:29;4.23;;;3.83;;
9224;SDS011;4647;48.072;11.616;2024-03-17T07:56:00;3.90;;;3.50;;
9224;SDS011;4647;48.072;11.616;2024-03-17T07:58:31;4.10;;;3.30;;
9224;SDS011;4647;48.072;11.616;2024-03-17T08:01:03;4.00;;;2.80;;
9224;SDS011;4647;48.072;11.616;2024-03-17T08:03:35;4.03;;;2.47;;
9224;SDS011;4647;48.072;11.616;2024-03-17T08:06:04;2.83;;;2.63;;
9224;SDS011;4647;48.072;11.616;2024-03-17T08:08:36;3.47;;;2.53;;
9224;SDS011;4647;48.072;11.616;2024-03-17T08:11:07;3.00;;;2.70;;
9224;SDS011;4647;48.072;11.616;2024-03-17T08:13:36;3.33;;;2.70;;
9224;SDS011;4647;48.072;11.616;2024-03-17T08:16:05;2.87;;;2.57;;
9224;SDS011;4647;48.072;11.616;2024-03-17T08:18:35;4.53;;;2.70;;
9224;SDS011;4647;48.072;11.616;2024-03-17T08:21:04;3.13;;;2.83;;
9224;SDS011;4647;48.072;11.616;2024-03-17T08:23:32;2.77;;;2.40;;
9224;SDS011;4647;48.072;11.616;2024-03-17T08:26:09;3.07;;;2.60;;
9224;SDS011;4647;48.072;11.616;2024-03-17T08:28:37;3.00;;;2.63;;
9224;SDS011;4647;48.072;11.616;2024-03-17T08:31:06;3.10;;;2.60;;
9224;SDS011;4647;48.072;11.616;2024-03-17T08:33:34;2.53;;;2.30;;
9224;SDS011;4647;48.072;11.616;2024-03-17T08:36:04;2.87;;;2.67;;
9224;SDS011;4647;48.072;11.616;2024-03-17T08:38:33;3.93;;;2.33;;
9224;SDS011;4647;48.072;11.616;2024-03-17T08:41:03;3.17;;;2.87;;
9224;SDS011;4647;48.072;11.616;2024-03-17T08:43:35;3.10;;;2.80;;
9224;SDS011;4647;48.072;11.616;2024-03-17T08:46:06;2.90;;;2.60;;
9224;SDS011;4647;48.072;11.616;2024-03-17T08:48:36;2.93;;;2.50;;
9224;SDS011;4647;48.072;11.616;2024-03-17T08:51:05;2.90;;;2.53;;
9224;SDS011;4647;48.072;11.616;2024-03-17T08:53:35;2.33;;;2.13;;
9224;SDS011;4647;48.072;11.616;2024-03-17T08:56:07;2.60;;;2.27;;
9224;SDS011;4647;48.072;11.616;2024-03-17T08:58:38;2.87;;;2.57;;
9224;SDS011;4647;48.072;11.616;2024-03-17T09:01:06;2.83;;;2.30;;
9224;SDS011;4647;48.072;11.616;2024-03-17T09:03:35;2.90;;;2.60;;
9224;SDS011;4647;48.072;11.616;2024-03-17T09:06:10;2.20;;;2.00;;
9224;SDS011;4647;48.072;11.616;2024-03-17T09:08:44;3.30;;;2.07;;
9224;SDS011;4647;48.072;11.616;2024-03-17T09:11:13;2.57;;;2.10;;
9224;SDS011;4647;48.072;11.616;2024-03-17T09:13:44;4.33;;;2.17;;
9224;SDS011;4647;48.072;11.616;2024-03-17T09:16:13;2.63;;;1.90;;
9224;SDS011;4647;48.072;11.616;2024-03-17T09:18:43;2.20;;;2.00;;
9224;SDS011;4647;48.072;11.616;2024-03-17T09:21:12;2.93;;;1.90;;
9224;SDS011;4647;48.072;11.616;2024-03-17T09:23:41;2.70;;;2.10;;
9224;SDS011;4647;48.072;11.616;2024-03-17T09:26:10;3.30;;;2.00;;
9224;SDS011;4647;48.072;11.616;2024-03-17T09:28:41;2.33;;;1.70;;
9224;SDS011;4647;48.072;11.616;2024-03-17T09:31:12;2.00;;;1.80;;
9224;SDS011;4647;48.072;11.616;2024-03-17T09:33:41;2.20;;;1.90;;
9224;SDS011;4647;48.072;11.616;2024-03-17T09:36:09;3.60;;;2.20;;
9224;SDS011;4647;48.072;11.616;2024-03-17T09:38:39;2.33;;;1.50;;
9224;SDS011;4647;48.072;11.616;2024-03-17T09:41:09;2.83;;;1.87;;
9224;SDS011;4647;48.072;11.616;2024-03-17T09:43:47;2.73;;;1.80;;
9224;SDS011;4647;48.072;11.616;2024-03-17T09:46:19;5.03;;;2.10;;
9224;SDS011;4647;48.072;11.616;2024-03-17T09:48:48;2.37;;;1.63;;
9224;SDS011;4647;48.072;11.616;2024-03-17T09:51:17;3.00;;;1.70;;
9224;SDS011;4647;48.072;11.616;2024-03-17T09:53:47;2.73;;;1.97;;
9224;SDS011;4647;48.072;11.616;2024-03-17T09:56:17;2.43;;;1.60;;
9224;SDS011;4647;48.072;11.616;2024-03-17T09:58:46;2.33;;;1.80;;
9224;SDS011;4647;48.072;11.616;2024-03-17T10:01:15;2.63;;;1.67;;
9224;SDS011;4647;48.072;11.616;2024-03-17T10:03:47;1.90;;;1.40;;
9224;SDS011;4647;48.072;11.616;2024-03-17T10:06:17;2.47;;;1.70;;
9224;SDS011;4647;48.072;11.616;2024-03-17T10:08:48;3.23;;;1.50;;
9224;SDS011;4647;48.072;11.616;2024-03-17T10:11:18;1.97;;;1.40;;
9224;SDS011;4647;48.072;11.616;2024-03-17T10:13:58;3.13;;;1.70;;
9224;SDS011;4647;48.072;11.616;2024-03-17T10:16:31;3.30;;;1.67;;
9224;SDS011;4647;48.072;11.616;2024-03-17T10:19:07;2.30;;;1.67;;
9224;SDS011;4647;48.072;11.616;2024-03-17T10:21:37;3.13;;;1.77;;
9224;SDS011;4647;48.072;11.616;2024-03-17T10:24:07;2.37;;;1.37;;
9224;SDS011;4647;48.072;11.616;2024-03-17T10:26:36;2.63;;;1.53;;
9224;SDS011;4647;48.072;11.616;2024-03-17T10:29:13;3.37;;;1.40;;
9224;SDS011;4647;48.072;11.616;2024-03-17T10:31:50;3.73;;;1.70;;
9224;SDS011;4647;48.072;11.616;2024-03-17T10:34:20;2.50;;;1.50;;
9224;SDS011;4647;48.072;11.616;2024-03-17T10:36:49;2.90;;;1.60;;
9224;SDS011;4647;48.072;11.616;2024-03-17T10:39:25;4.80;;;1.67;;
9224;SDS011;4647;48.072;11.616;2024-03-17T10:41:59;3.37;;;1.70;;
9224;SDS011;4647;48.072;11.616;2024-03-17T10:44:28;2.57;;;1.40;;
9224;SDS011;4647;48.072;11.616;2024-03-17T10:47:00;2.40;;;1.63;;
9224;SDS011;4647;48.072;11.616;2024-03-17T10:49:35;2.57;;;1.67;;
9224;SDS011;4647;48.072;11.616;2024-03-17T10:52:05;1.90;;;1.50;;
9224;SDS011;4647;48.072;11.616;2024-03-17T10:54:35;3.50;;;1.50;;
9224;SDS011;4647;48.072;11.616;2024-03-17T10:57:07;4.40;;;1.93;;
9224;SDS011;4647;48.072;11.616;2024-03-17T10:59:50;1.93;;;1.47;;
9224;SDS011;4647;48.072;11.616;2024-03-17T11:02:24;4.87;;;1.50;;
9224;SDS011;4647;48.072;11.616;2024-03-17T11:04:55;2.67;;;1.60;;
9224;SDS011;4647;48.072;11.616;2024-03-17T11:07:25;3.77;;;1.80;;
9224;SDS011;4647;48.072;11.616;2024-03-17T11:09:56;3.37;;;1.60;;
9224;SDS011;4647;48.072;11.616;2024-03-17T11:12:41;3.77;;;1.80;;
9224;SDS011;4647;48.072;11.616;2024-03-17T11:21:03;2.67;;;1.60;;
9224;SDS011;4647;48.072;11.616;2024-03-17T11:23:58;2.97;;;1.70;;
9224;SDS011;4647;48.072;11.616;2024-03-17T11:26:29;2.10;;;1.60;;
9224;SDS011;4647;48.072;11.616;2024-03-17T11:29:00;4.40;;;1.70;;
9224;SDS011;4647;48.072;11.616;2024-03-17T11:31:31;2.77;;;1.50;;
9224;SDS011;4647;48.072;11.616;2024-03-17T11:34:03;2.93;;;1.63;;
9224;SDS011;4647;48.072;11.616;2024-03-17T11:36:33;5.00;;;1.50;;
9224;SDS011;4647;48.072;11.616;2024-03-17T11:39:04;3.40;;;1.60;;
9224;SDS011;4647;48.072;11.616;2024-03-17T11:41:42;3.03;;;1.77;;
9224;SDS011;4647;48.072;11.616;2024-03-17T11:44:15;5.73;;;1.97;;
9224;SDS011;4647;48.072;11.616;2024-03-17T11:46:52;3.20;;;1.70;;
9224;SDS011;4647;48.072;11.616;2024-03-17T11:49:22;3.67;;;1.83;;
9224;SDS011;4647;48.072;11.616;2024-03-17T11:51:53;2.93;;;1.50;;
9224;SDS011;4647;48.072;11.616;2024-03-17T11:54:23;2.93;;;1.70;;
9224;SDS011;4647;48.072;11.616;2024-03-17T11:56:54;4.07;;;1.90;;
9224;SDS011;4647;48.072;11.616;2024-03-17T11:59:20;2.47;;;1.53;;
9224;SDS011;4647;48.072;11.616;2024-03-17T12:01:49;4.80;;;1.70;;
9224;SDS011;4647;48.072;11.616;2024-03-17T12:04:17;2.63;;;1.63;;
9224;SDS011;4647;48.072;11.616;2024-03-17T12:06:49;3.57;;;1.80;;
9224;SDS011;4647;48.072;11.616;2024-03-17T12:09:20;3.10;;;1.60;;
9224;SDS011;4647;48.072;11.616;2024-03-17T12:11:50;2.20;;;1.50;;
9224;SDS011;4647;48.072;11.616;2024-03-17T12:14:17;4.47;;;1.70;;
9224;SDS011;4647;48.072;11.616;2024-03-17T12:16:47;2.90;;;1.47;;
9224;SDS011;4647;48.072;11.616;2024-03-17T12:19:15;4.03;;;1.90;;
9224;SDS011;4647;48.072;11.616;2024-03-17T12:21:44;3.40;;;1.70;;
9224;SDS011;4647;48.072;11.616;2024-03-17T12:24:16;3.40;;;1.73;;
9224;SDS011;4647;48.072;11.616;2024-03-17T12:26:46;2.70;;;1.57;;
9224;SDS011;4647;48.072;11.616;2024-03-17T12:29:22;2.43;;;1.57;;
9224;SDS011;4647;48.072;11.616;2024-03-17T12:31:53;3.20;;;1.60;;
9224;SDS011;4647;48.072;11.616;2024-03-17T12:34:20;4.60;;;1.87;;
9224;SDS011;4647;48.072;11.616;2024-03-17T12:36:51;3.93;;;1.67;;
9224;SDS011;4647;48.072;11.616;2024-03-17T12:39:20;3.07;;;1.83;;
9224;SDS011;4647;48.072;11.616;2024-03-17T12:44:47;4.80;;;1.70;;
9224;SDS011;4647;48.072;11.616;2024-03-17T12:47:16;3.80;;;1.80;;
9224;SDS011;4647;48.072;11.616;2024-03-17T12:49:46;3.40;;;1.70;;
9224;SDS011;4647;48.072;11.616;2024-03-17T12:52:20;4.97;;;1.77;;
9224;SDS011;4647;48.072;11.616;2024-03-17T12:54:58;5.07;;;1.63;;
9224;SDS011;4647;48.072;11.616;2024-03-17T12:57:39;3.87;;;2.00;;
9224;SDS011;4647;48.072;11.616;2024-03-17T13:00:32;3.87;;;1.67;;
9224;SDS011;4647;48.072;11.616;2024-03-17T13:03:01;3.67;;;1.73;;
9224;SDS011;4647;48.072;11.616;2024-03-17T13:05:31;3.23;;;1.43;;
9224;SDS011;4647;48.072;11.616;2024-03-17T13:08:00;3.70;;;1.77;;
9224;SDS011;4647;48.072;11.616;2024-03-17T13:10:31;3.47;;;1.53;;
9224;SDS011;4647;48.072;11.616;2024-03-17T13:13:00;3.63;;;1.90;;
9224;SDS011;4647;48.072;11.616;2024-03-17T13:15:30;4.50;;;2.00;;
9224;SDS011;4647;48.072;11.616;2024-03-17T13:18:00;3.63;;;2.10;;
9224;SDS011;4647;48.072;11.616;2024-03-17T13:20:30;3.37;;;1.77;;
9224;SDS011;4647;48.072;11.616;2024-03-17T13:22:59;4.07;;;2.17;;
9224;SDS011;4647;48.072;11.616;2024-03-17T13:25:29;4.50;;;2.20;;
9224;SDS011;4647;48.072;11.616;2024-03-17T13:28:02;3.90;;;2.00;;
9224;SDS011;4647;48.072;11.616;2024-03-17T13:30:32;3.83;;;1.67;;
9224;SDS011;4647;48.072;11.616;2024-03-17T13:33:02;3.80;;;1.90;;
9224;SDS011;4647;48.072;11.616;2024-03-17T13:35:34;4.57;;;1.80;;
9224;SDS011;4647;48.072;11.616;2024-03-17T13:38:04;4.53;;;1.60;;
9224;SDS011;4647;48.072;11.616;2024-03-17T13:40:36;3.50;;;1.87;;
9224;SDS011;4647;48.072;11.616;2024-03-17T13:43:07;3.33;;;1.83;;
9224;SDS011;4647;48.072;11.616;2024-03-17T13:45:38;4.17;;;1.80;;
9224;SDS011;4647;48.072;11.616;2024-03-17T13:48:08;4.93;;;2.10;;
9224;SDS011;4647;48.072;11.616;2024-03-17T13:50:38;3.80;;;1.97;;
9224;SDS011;4647;48.072;11.616;2024-03-17T13:53:09;4.37;;;1.90;;
9224;SDS011;4647;48.072;11.616;2024-03-17T13:55:40;2.93;;;1.60;;
9224;SDS011;4647;48.072;11.616;2024-03-17T13:58:09;4.60;;;1.80;;
9224;SDS011;4647;48.072;11.616;2024-03-17T14:00:37;3.10;;;1.80;;
9224;SDS011;4647;48.072;11.616;2024-03-17T14:03:07;3.13;;;1.73;;
9224;SDS011;4647;48.072;11.616;2024-03-17T14:05:37;3.33;;;1.70;;
9224;SDS011;4647;48.072;11.616;2024-03-17T14:08:06;3.67;;;2.17;;
9224;SDS011;4647;48.072;11.616;2024-03-17T14:10:35;3.63;;;1.70;;
9224;SDS011;4647;48.072;11.616;2024-03-17T14:13:06;3.67;;;2.00;;
9224;SDS011;4647;48.072;11.616;2024-03-17T14:15:36;4.53;;;1.80;;
9224;SDS011;4647;48.072;11.616;2024-03-17T14:20:46;4.10;;;1.90;;
9224;SDS011;4647;48.072;11.616;2024-03-17T14:23:15;3.47;;;1.70;;
9224;SDS011;4647;48.072;11.616;2024-03-17T14:25:43;3.03;;;1.80;;
9224;SDS011;4647;48.072;11.616;2024-03-17T14:28:15;3.93;;;2.00;;
9224;SDS011;4647;48.072;11.616;2024-03-17T14:30:44;2.97;;;1.87;;
9224;SDS011;4647;48.072;11.616;2024-03-17T14:33:12;3.07;;;1.70;;
9224;SDS011;4647;48.072;11.616;2024-03-17T14:35:41;3.73;;;2.03;;
9224;SDS011;4647;48.072;11.616;2024-03-17T14:38:10;5.50;;;1.70;;
9224;SDS011;4647;48.072;11.616;2024-03-17T14:40:39;5.00;;;1.90;;
9224;SDS011;4647;48.072;11.616;2024-03-17T14:43:08;7.07;;;1.90;;
9224;SDS011;4647;48.072;11.616;2024-03-17T14:45:39;4.23;;;1.80;;
9224;SDS011;4647;48.072;11.616;2024-03-17T14:48:08;3.67;;;1.97;;
9224;SDS011;4647;48.072;11.616;2024-03-17T14:50:38;3.13;;;1.80;;
9224;SDS011;4647;48.072;11.616;2024-03-17T14:53:06;4.43;;;1.90;;
9224;SDS011;4647;48.072;11.616;2024-03-17T14:55:35;3.67;;;1.70;;
9224;SDS011;4647;48.072;11.616;2024-03-17T14:58:03;4.20;;;1.73;;
9224;SDS011;4647;48.072;11.616;2024-03-17T15:00:32;4.10;;;1.90;;
9224;SDS011;4647;48.072;11.616;2024-03-17T15:03:03;5.10;;;1.80;;
9224;SDS011;4647;48.072;11.616;2024-03-17T15:05:34;3.23;;;1.87;;
9224;SDS011;4647;48.072;11.616;2024-03-17T15:08:02;5.67;;;1.93;;
9224;SDS011;4647;48.072;11.616;2024-03-17T15:10:31;4.77;;;2.20;;
9224;SDS011;4647;48.072;11.616;2024-03-17T15:13:02;5.40;;;2.07;;
9224;SDS011;4647;48.072;11.616;2024-03-17T15:15:31;4.23;;;1.90;;
9224;SDS011;4647;48.072;11.616;2024-03-17T15:17:59;4.37;;;2.10;;
9224;SDS011;4647;48.072;11.616;2024-03-17T15:20:31;4.30;;;2.00;;
9224;SDS011;4647;48.072;11.616;2024-03-17T15:23:00;5.03;;;2.23;;
9224;SDS011;4647;48.072;11.616;2024-03-17T15:25:30;4.33;;;1.73;;
9224;SDS011;4647;48.072;11.616;2024-03-17T15:27:58;4.10;;;2.13;;